Pagrindinis puslapis
METAR-TAF:

METAR-TAF

Oro uostai :

Vesterosas, Švedija

platuma: 59-35N, ilguma: 016-38E, Aukštis: 6 m

Dabartinis oras

Ataskaita buvo paskelbta 37 minutes, ne 18:50 UTC
Vėjas 10 kt iš Pietvakarių, svyruoja nuo Pietų/Pietvakarių ir Vakarų
Temperatūra 20°C
Drėgmė 49%
Slėgis 1017 hPa
Matomumas 10 km arba daugiau

METAR: ESOW 021850Z AUTO 23010KT 200V280 9999 NCD 20/09 Q1017

Laikas: 21:27 (19:27 UTC)

Prognozė

Ataskaita buvo paskelbta 28 valandos ir 57 minutes, ne 14:30 UTC
Prognozė galioja nuo 01 metu 15 UTC su 01 metu 17 UTC
Vėjas 5 kt iš Pietų
Matomumas 10 km arba daugiau
Išsisklaidę debesys ne aukštis 3000 ft

TAF: ESOW 011430Z 0115/0117 17005KT 9999 SCT030

Orai ataskaitas ir orų prognozės (METAR, TAF).

turimą stotys yra geltonos ir raudonos taškus žemėlapyje.

Perkelti pele per norėdami pamatyti stoties vardą.

Tada spustelėkite, norėdami matyti oro stebėjimo ir prognozės.

Norėdami pakeisti žemėlapį: spustelėkite ant žalios mygtukų su juodo kryžiaus žemyn,; žalią mygtuką su brūkšneliu, jei norite nutolinti; arba žalių rodyklių gretimoms žemėlapius.


METAR-TAF: